sensor_id;sensor_type;location;lat;lon;timestamp;pressure;altitude;pressure_sealevel;temperature;humidity
43553;BME280;29153;42.696;23.218;2024-01-15T00:01:36;93894.36;;;-5.99;100.00
43553;BME280;29153;42.696;23.218;2024-01-15T00:04:04;93893.00;;;-5.95;100.00
43553;BME280;29153;42.696;23.218;2024-01-15T00:06:31;93883.08;;;-6.09;100.00
43553;BME280;29153;42.696;23.218;2024-01-15T00:09:00;93892.06;;;-5.98;100.00
43553;BME280;29153;42.696;23.218;2024-01-15T00:11:27;93886.33;;;-6.38;100.00
43553;BME280;29153;42.696;23.218;2024-01-15T00:13:55;93887.27;;;-6.29;100.00
43553;BME280;29153;42.696;23.218;2024-01-15T00:16:22;93880.23;;;-6.31;100.00
43553;BME280;29153;42.696;23.218;2024-01-15T00:18:50;93882.61;;;-6.19;100.00
43553;BME280;29153;42.696;23.218;2024-01-15T00:21:18;93859.55;;;-6.16;100.00
43553;BME280;29153;42.696;23.218;2024-01-15T00:23:45;93888.56;;;-6.29;100.00
43553;BME280;29153;42.696;23.218;2024-01-15T00:26:13;93886.64;;;-6.20;100.00
43553;BME280;29153;42.696;23.218;2024-01-15T00:28:41;93881.31;;;-6.19;100.00
43553;BME280;29153;42.696;23.218;2024-01-15T00:31:09;93886.68;;;-6.31;100.00
43553;BME280;29153;42.696;23.218;2024-01-15T00:33:37;93841.52;;;-6.55;100.00
43553;BME280;29153;42.696;23.218;2024-01-15T00:36:05;93881.95;;;-6.27;100.00
43553;BME280;29153;42.696;23.218;2024-01-15T00:38:33;93884.94;;;-6.13;100.00
43553;BME280;29153;42.696;23.218;2024-01-15T00:41:00;93892.59;;;-6.20;100.00
43553;BME280;29153;42.696;23.218;2024-01-15T00:43:29;93893.23;;;-6.28;100.00
43553;BME280;29153;42.696;23.218;2024-01-15T00:45:56;93886.92;;;-6.36;100.00
43553;BME280;29153;42.696;23.218;2024-01-15T00:48:24;93901.72;;;-6.34;100.00
43553;BME280;29153;42.696;23.218;2024-01-15T00:50:52;93888.59;;;-6.39;100.00
43553;BME280;29153;42.696;23.218;2024-01-15T00:53:20;93889.43;;;-6.32;100.00
43553;BME280;29153;42.696;23.218;2024-01-15T00:55:52;93886.37;;;-6.32;100.00
43553;BME280;29153;42.696;23.218;2024-01-15T00:58:20;93885.08;;;-6.32;100.00
43553;BME280;29153;42.696;23.218;2024-01-15T01:00:48;93880.97;;;-6.37;100.00
43553;BME280;29153;42.696;23.218;2024-01-15T01:03:16;93878.95;;;-6.41;100.00
43553;BME280;29153;42.696;23.218;2024-01-15T01:05:44;93875.27;;;-6.32;100.00
43553;BME280;29153;42.696;23.218;2024-01-15T01:08:11;93879.27;;;-6.30;100.00
43553;BME280;29153;42.696;23.218;2024-01-15T01:10:39;93886.50;;;-6.40;100.00
43553;BME280;29153;42.696;23.218;2024-01-15T01:13:08;93871.29;;;-6.35;100.00
43553;BME280;29153;42.696;23.218;2024-01-15T01:15:36;93880.91;;;-6.33;100.00
43553;BME280;29153;42.696;23.218;2024-01-15T01:18:05;93872.51;;;-6.31;100.00
43553;BME280;29153;42.696;23.218;2024-01-15T01:20:32;93875.43;;;-6.23;100.00
43553;BME280;29153;42.696;23.218;2024-01-15T01:23:00;93873.17;;;-6.33;100.00
43553;BME280;29153;42.696;23.218;2024-01-15T01:25:28;93870.63;;;-6.43;100.00
43553;BME280;29153;42.696;23.218;2024-01-15T01:27:55;93872.96;;;-6.49;100.00
43553;BME280;29153;42.696;23.218;2024-01-15T01:30:23;93858.83;;;-6.31;100.00
43553;BME280;29153;42.696;23.218;2024-01-15T01:32:50;93856.95;;;-6.44;100.00
43553;BME280;29153;42.696;23.218;2024-01-15T01:35:18;93861.23;;;-6.40;100.00
43553;BME280;29153;42.696;23.218;2024-01-15T01:37:46;93852.63;;;-6.37;100.00
43553;BME280;29153;42.696;23.218;2024-01-15T01:40:13;93868.47;;;-6.40;100.00
43553;BME280;29153;42.696;23.218;2024-01-15T01:42:41;93851.06;;;-6.49;100.00
43553;BME280;29153;42.696;23.218;2024-01-15T01:45:09;93852.36;;;-6.49;100.00
43553;BME280;29153;42.696;23.218;2024-01-15T01:47:37;93849.33;;;-6.41;100.00
43553;BME280;29153;42.696;23.218;2024-01-15T01:50:07;93841.87;;;-6.58;100.00
43553;BME280;29153;42.696;23.218;2024-01-15T01:52:35;93846.41;;;-6.49;100.00
43553;BME280;29153;42.696;23.218;2024-01-15T01:55:03;93844.48;;;-6.40;100.00
43553;BME280;29153;42.696;23.218;2024-01-15T01:57:33;93845.67;;;-6.43;100.00
43553;BME280;29153;42.696;23.218;2024-01-15T02:00:14;93845.42;;;-6.48;100.00
43553;BME280;29153;42.696;23.218;2024-01-15T02:02:43;93841.49;;;-6.44;100.00
43553;BME280;29153;42.696;23.218;2024-01-15T02:05:11;93835.99;;;-6.52;100.00
43553;BME280;29153;42.696;23.218;2024-01-15T02:07:39;93834.84;;;-6.60;100.00
43553;BME280;29153;42.696;23.218;2024-01-15T02:10:08;93828.34;;;-6.56;100.00
43553;BME280;29153;42.696;23.218;2024-01-15T02:12:36;93827.30;;;-6.61;100.00
43553;BME280;29153;42.696;23.218;2024-01-15T02:15:04;93822.83;;;-6.74;100.00
43553;BME280;29153;42.696;23.218;2024-01-15T02:17:32;93825.90;;;-6.64;100.00
43553;BME280;29153;42.696;23.218;2024-01-15T02:19:59;93811.42;;;-6.75;100.00
43553;BME280;29153;42.696;23.218;2024-01-15T02:22:27;93779.31;;;-6.69;100.00
43553;BME280;29153;42.696;23.218;2024-01-15T02:24:55;93781.39;;;-6.79;100.00
43553;BME280;29153;42.696;23.218;2024-01-15T02:27:22;93777.70;;;-6.70;100.00
43553;BME280;29153;42.696;23.218;2024-01-15T02:29:50;93692.56;;;-7.34;100.00
43553;BME280;29153;42.696;23.218;2024-01-15T02:32:18;93783.17;;;-6.79;100.00
43553;BME280;29153;42.696;23.218;2024-01-15T02:34:46;93779.63;;;-6.78;100.00
43553;BME280;29153;42.696;23.218;2024-01-15T02:37:13;93777.36;;;-6.77;100.00
43553;BME280;29153;42.696;23.218;2024-01-15T02:39:41;93773.30;;;-6.76;100.00
43553;BME280;29153;42.696;23.218;2024-01-15T02:42:08;93773.77;;;-6.66;100.00
43553;BME280;29153;42.696;23.218;2024-01-15T02:44:36;93781.75;;;-6.71;100.00
43553;BME280;29153;42.696;23.218;2024-01-15T02:47:04;93782.69;;;-6.68;100.00
43553;BME280;29153;42.696;23.218;2024-01-15T02:49:32;93783.13;;;-6.58;100.00
43553;BME280;29153;42.696;23.218;2024-01-15T02:51:59;93775.70;;;-6.47;100.00
43553;BME280;29153;42.696;23.218;2024-01-15T02:54:27;93774.34;;;-6.42;100.00
43553;BME280;29153;42.696;23.218;2024-01-15T02:56:54;93773.80;;;-6.31;100.00
43553;BME280;29153;42.696;23.218;2024-01-15T02:59:22;93765.28;;;-6.32;100.00
43553;BME280;29153;42.696;23.218;2024-01-15T03:01:50;93772.05;;;-6.24;100.00
43553;BME280;29153;42.696;23.218;2024-01-15T03:04:17;93768.11;;;-6.20;100.00
43553;BME280;29153;42.696;23.218;2024-01-15T03:06:45;93772.05;;;-6.24;100.00
43553;BME280;29153;42.696;23.218;2024-01-15T03:09:13;93755.67;;;-6.17;100.00
43553;BME280;29153;42.696;23.218;2024-01-15T03:11:40;93769.12;;;-6.21;100.00
43553;BME280;29153;42.696;23.218;2024-01-15T03:14:08;93762.84;;;-6.06;100.00
43553;BME280;29153;42.696;23.218;2024-01-15T03:16:35;93746.08;;;-6.12;100.00
43553;BME280;29153;42.696;23.218;2024-01-15T03:19:03;93745.06;;;-6.11;100.00
43553;BME280;29153;42.696;23.218;2024-01-15T03:21:31;93736.83;;;-6.17;100.00
43553;BME280;29153;42.696;23.218;2024-01-15T03:23:58;93745.44;;;-5.97;100.00
43553;BME280;29153;42.696;23.218;2024-01-15T03:26:26;93730.95;;;-5.98;100.00
43553;BME280;29153;42.696;23.218;2024-01-15T03:28:53;93747.56;;;-5.77;100.00
43553;BME280;29153;42.696;23.218;2024-01-15T03:31:21;93738.26;;;-5.78;100.00
43553;BME280;29153;42.696;23.218;2024-01-15T03:33:49;93748.80;;;-5.66;100.00
43553;BME280;29153;42.696;23.218;2024-01-15T03:36:16;93745.34;;;-5.56;100.00
43553;BME280;29153;42.696;23.218;2024-01-15T03:38:44;93749.16;;;-5.39;100.00
43553;BME280;29153;42.696;23.218;2024-01-15T03:41:12;93747.59;;;-5.40;100.00
43553;BME280;29153;42.696;23.218;2024-01-15T03:43:39;93755.63;;;-5.32;100.00
43553;BME280;29153;42.696;23.218;2024-01-15T03:46:07;93751.17;;;-5.21;100.00
43553;BME280;29153;42.696;23.218;2024-01-15T03:48:35;93741.67;;;-5.14;100.00
43553;BME280;29153;42.696;23.218;2024-01-15T03:51:03;93737.91;;;-5.05;100.00
43553;BME280;29153;42.696;23.218;2024-01-15T03:53:30;93741.38;;;-5.02;100.00
43553;BME280;29153;42.696;23.218;2024-01-15T03:55:58;93730.47;;;-4.84;100.00
43553;BME280;29153;42.696;23.218;2024-01-15T03:58:25;93735.72;;;-4.82;100.00
43553;BME280;29153;42.696;23.218;2024-01-15T04:00:53;93727.27;;;-4.86;100.00
43553;BME280;29153;42.696;23.218;2024-01-15T04:03:21;93731.44;;;-4.92;100.00
43553;BME280;29153;42.696;23.218;2024-01-15T04:05:48;93725.48;;;-4.86;100.00
43553;BME280;29153;42.696;23.218;2024-01-15T04:08:16;93725.19;;;-4.87;100.00
43553;BME280;29153;42.696;23.218;2024-01-15T04:10:44;93725.59;;;-4.90;100.00
43553;BME280;29153;42.696;23.218;2024-01-15T04:13:11;93724.31;;;-4.96;100.00
43553;BME280;29153;42.696;23.218;2024-01-15T04:15:39;93723.98;;;-5.04;100.00
43553;BME280;29153;42.696;23.218;2024-01-15T04:18:07;93719.64;;;-4.97;100.00
43553;BME280;29153;42.696;23.218;2024-01-15T04:20:34;93726.08;;;-5.03;100.00
43553;BME280;29153;42.696;23.218;2024-01-15T04:23:02;93720.61;;;-5.24;100.00
43553;BME280;29153;42.696;23.218;2024-01-15T04:25:30;93722.50;;;-5.16;100.00
43553;BME280;29153;42.696;23.218;2024-01-15T04:27:57;93718.12;;;-5.28;100.00
43553;BME280;29153;42.696;23.218;2024-01-15T04:30:25;93710.98;;;-5.20;100.00
43553;BME280;29153;42.696;23.218;2024-01-15T04:32:52;93732.78;;;-5.42;100.00
43553;BME280;29153;42.696;23.218;2024-01-15T04:35:20;93732.66;;;-5.51;100.00
43553;BME280;29153;42.696;23.218;2024-01-15T04:37:48;93729.59;;;-5.51;100.00
43553;BME280;29153;42.696;23.218;2024-01-15T04:40:15;93735.05;;;-5.49;100.00
43553;BME280;29153;42.696;23.218;2024-01-15T04:42:43;93728.48;;;-5.59;100.00
43553;BME280;29153;42.696;23.218;2024-01-15T04:45:12;93723.35;;;-5.45;100.00
43553;BME280;29153;42.696;23.218;2024-01-15T04:47:40;93717.05;;;-5.60;100.00
43553;BME280;29153;42.696;23.218;2024-01-15T04:50:08;93719.27;;;-5.57;100.00
43553;BME280;29153;42.696;23.218;2024-01-15T04:52:36;93715.55;;;-5.72;100.00
43553;BME280;29153;42.696;23.218;2024-01-15T04:55:04;93705.14;;;-5.68;100.00
43553;BME280;29153;42.696;23.218;2024-01-15T04:57:32;93702.56;;;-5.68;100.00
43553;BME280;29153;42.696;23.218;2024-01-15T04:59:59;93695.72;;;-5.65;100.00
43553;BME280;29153;42.696;23.218;2024-01-15T05:02:27;93687.39;;;-5.60;100.00
43553;BME280;29153;42.696;23.218;2024-01-15T05:04:55;93690.16;;;-5.68;100.00
43553;BME280;29153;42.696;23.218;2024-01-15T05:07:22;93687.58;;;-5.68;100.00
43553;BME280;29153;42.696;23.218;2024-01-15T05:09:50;93689.97;;;-5.67;100.00
43553;BME280;29153;42.696;23.218;2024-01-15T05:12:17;93690.28;;;-5.66;100.00
43553;BME280;29153;42.696;23.218;2024-01-15T05:14:46;93682.84;;;-5.52;100.00
43553;BME280;29153;42.696;23.218;2024-01-15T05:17:13;93692.39;;;-5.45;100.00
43553;BME280;29153;42.696;23.218;2024-01-15T05:19:41;93699.73;;;-5.42;100.00
43553;BME280;29153;42.696;23.218;2024-01-15T05:22:08;93698.02;;;-5.66;100.00
43553;BME280;29153;42.696;23.218;2024-01-15T05:24:36;93710.88;;;-5.72;100.00
43553;BME280;29153;42.696;23.218;2024-01-15T05:27:04;93703.05;;;-5.68;100.00
43553;BME280;29153;42.696;23.218;2024-01-15T05:29:31;93708.97;;;-5.81;100.00
43553;BME280;29153;42.696;23.218;2024-01-15T05:31:59;93697.27;;;-5.90;100.00
43553;BME280;29153;42.696;23.218;2024-01-15T05:34:27;93692.42;;;-5.89;100.00
43553;BME280;29153;42.696;23.218;2024-01-15T05:36:54;93676.02;;;-5.99;100.00
43553;BME280;29153;42.696;23.218;2024-01-15T05:39:25;93688.42;;;-5.98;100.00
43553;BME280;29153;42.696;23.218;2024-01-15T05:41:51;93676.41;;;-6.08;100.00
43553;BME280;29153;42.696;23.218;2024-01-15T05:44:19;93674.82;;;-6.03;100.00
43553;BME280;29153;42.696;23.218;2024-01-15T05:46:46;93671.30;;;-5.95;100.00
43553;BME280;29153;42.696;23.218;2024-01-15T05:49:14;93660.89;;;-5.91;100.00
43553;BME280;29153;42.696;23.218;2024-01-15T05:51:41;93665.66;;;-5.88;100.00
43553;BME280;29153;42.696;23.218;2024-01-15T05:54:09;93657.03;;;-5.91;100.00
43553;BME280;29153;42.696;23.218;2024-01-15T05:56:37;93678.42;;;-5.77;100.00
43553;BME280;29153;42.696;23.218;2024-01-15T05:59:04;93677.44;;;-5.83;100.00
43553;BME280;29153;42.696;23.218;2024-01-15T06:01:32;93667.84;;;-5.78;100.00
43553;BME280;29153;42.696;23.218;2024-01-15T06:04:00;93672.99;;;-5.72;100.00
43553;BME280;29153;42.696;23.218;2024-01-15T06:06:27;93663.78;;;-5.64;100.00
43553;BME280;29153;42.696;23.218;2024-01-15T06:08:55;93666.67;;;-5.63;100.00
43553;BME280;29153;42.696;23.218;2024-01-15T06:11:23;93669.67;;;-5.53;100.00
43553;BME280;29153;42.696;23.218;2024-01-15T06:13:52;93662.59;;;-5.68;100.00
43553;BME280;29153;42.696;23.218;2024-01-15T06:16:19;93664.67;;;-5.67;100.00
43553;BME280;29153;42.696;23.218;2024-01-15T06:18:48;93661.51;;;-5.63;100.00
43553;BME280;29153;42.696;23.218;2024-01-15T06:21:16;93646.84;;;-5.42;100.00
43553;BME280;29153;42.696;23.218;2024-01-15T06:23:43;93662.33;;;-5.29;100.00
43553;BME280;29153;42.696;23.218;2024-01-15T06:26:14;93661.44;;;-5.45;100.00
43553;BME280;29153;42.696;23.218;2024-01-15T06:28:41;93659.77;;;-5.36;100.00
43553;BME280;29153;42.696;23.218;2024-01-15T06:31:09;93551.92;;;-5.95;100.00
43553;BME280;29153;42.696;23.218;2024-01-15T06:33:37;93670.08;;;-5.16;100.00
43553;BME280;29153;42.696;23.218;2024-01-15T06:36:05;93657.36;;;-5.05;100.00
43553;BME280;29153;42.696;23.218;2024-01-15T06:38:33;93666.28;;;-4.87;100.00
43553;BME280;29153;42.696;23.218;2024-01-15T06:41:00;93654.67;;;-4.81;100.00
43553;BME280;29153;42.696;23.218;2024-01-15T06:43:28;93662.39;;;-4.74;100.00
43553;BME280;29153;42.696;23.218;2024-01-15T06:45:56;93674.50;;;-4.55;100.00
43553;BME280;29153;42.696;23.218;2024-01-15T06:48:23;93665.39;;;-4.35;100.00
43553;BME280;29153;42.696;23.218;2024-01-15T06:50:51;93661.97;;;-4.23;100.00
43553;BME280;29153;42.696;23.218;2024-01-15T06:53:19;93676.25;;;-4.07;100.00
43553;BME280;29153;42.696;23.218;2024-01-15T06:55:47;93675.89;;;-3.95;100.00
43553;BME280;29153;42.696;23.218;2024-01-15T06:58:15;93680.22;;;-3.82;100.00
43553;BME280;29153;42.696;23.218;2024-01-15T07:00:43;93680.34;;;-3.71;100.00
43553;BME280;29153;42.696;23.218;2024-01-15T07:03:10;93684.16;;;-3.57;100.00
43553;BME280;29153;42.696;23.218;2024-01-15T07:05:38;93680.75;;;-3.51;100.00
43553;BME280;29153;42.696;23.218;2024-01-15T07:08:06;93684.70;;;-3.49;100.00
43553;BME280;29153;42.696;23.218;2024-01-15T07:10:33;93682.54;;;-3.36;100.00
43553;BME280;29153;42.696;23.218;2024-01-15T07:13:01;93682.97;;;-3.39;100.00
43553;BME280;29153;42.696;23.218;2024-01-15T07:15:29;93690.42;;;-3.25;100.00
43553;BME280;29153;42.696;23.218;2024-01-15T07:17:56;93675.42;;;-3.16;100.00
43553;BME280;29153;42.696;23.218;2024-01-15T07:20:24;93684.95;;;-3.10;100.00
43553;BME280;29153;42.696;23.218;2024-01-15T07:22:51;93678.68;;;-2.96;100.00
43553;BME280;29153;42.696;23.218;2024-01-15T07:25:19;93671.24;;;-3.01;100.00
43553;BME280;29153;42.696;23.218;2024-01-15T07:27:47;93681.66;;;-2.83;100.00
43553;BME280;29153;42.696;23.218;2024-01-15T07:30:14;93669.55;;;-2.89;100.00
43553;BME280;29153;42.696;23.218;2024-01-15T07:32:42;93670.80;;;-2.83;100.00
43553;BME280;29153;42.696;23.218;2024-01-15T07:35:10;93665.48;;;-2.69;100.00
43553;BME280;29153;42.696;23.218;2024-01-15T07:37:37;93666.88;;;-2.58;100.00
43553;BME280;29153;42.696;23.218;2024-01-15T07:40:06;93661.86;;;-2.53;100.00
43553;BME280;29153;42.696;23.218;2024-01-15T07:42:35;93669.34;;;-2.26;100.00
43553;BME280;29153;42.696;23.218;2024-01-15T07:45:05;93675.41;;;-2.23;100.00
43553;BME280;29153;42.696;23.218;2024-01-15T07:47:33;93656.96;;;-2.24;100.00
43553;BME280;29153;42.696;23.218;2024-01-15T07:50:00;93664.60;;;-2.11;100.00
43553;BME280;29153;42.696;23.218;2024-01-15T07:52:28;93673.23;;;-1.90;100.00
43553;BME280;29153;42.696;23.218;2024-01-15T07:54:56;93660.39;;;-1.76;100.00
43553;BME280;29153;42.696;23.218;2024-01-15T07:57:26;93655.89;;;-1.60;100.00
43553;BME280;29153;42.696;23.218;2024-01-15T07:59:54;93651.63;;;-1.54;100.00
43553;BME280;29153;42.696;23.218;2024-01-15T08:02:21;93649.06;;;-1.43;100.00
43553;BME280;29153;42.696;23.218;2024-01-15T08:04:49;93652.53;;;-1.28;100.00
43553;BME280;29153;42.696;23.218;2024-01-15T08:07:17;93674.09;;;-1.07;100.00
43553;BME280;29153;42.696;23.218;2024-01-15T08:09:44;93678.73;;;-0.76;99.81
43553;BME280;29153;42.696;23.218;2024-01-15T08:12:13;93686.14;;;-0.82;98.43
43553;BME280;29153;42.696;23.218;2024-01-15T08:14:41;93681.23;;;-0.81;98.03
43553;BME280;29153;42.696;23.218;2024-01-15T08:17:09;93672.81;;;-0.74;98.52
43553;BME280;29153;42.696;23.218;2024-01-15T08:19:36;93667.27;;;-0.78;98.19
43553;BME280;29153;42.696;23.218;2024-01-15T08:22:05;93687.23;;;-0.69;96.26
43553;BME280;29153;42.696;23.218;2024-01-15T08:24:33;93691.30;;;-0.62;96.56
43553;BME280;29153;42.696;23.218;2024-01-15T08:27:01;93685.59;;;-0.50;96.75
43553;BME280;29153;42.696;23.218;2024-01-15T08:29:28;93686.45;;;-0.35;95.80
43553;BME280;29153;42.696;23.218;2024-01-15T08:31:58;93680.16;;;-0.25;94.52
43553;BME280;29153;42.696;23.218;2024-01-15T08:34:42;93687.95;;;-0.02;92.41
43553;BME280;29153;42.696;23.218;2024-01-15T08:37:09;93679.20;;;0.05;91.60
43553;BME280;29153;42.696;23.218;2024-01-15T08:39:37;93674.33;;;0.20;91.35
43553;BME280;29153;42.696;23.218;2024-01-15T08:42:05;93679.38;;;0.38;89.26
43553;BME280;29153;42.696;23.218;2024-01-15T08:44:33;93669.21;;;0.39;89.82
43553;BME280;29153;42.696;23.218;2024-01-15T08:47:00;93682.20;;;0.65;89.38
43553;BME280;29153;42.696;23.218;2024-01-15T08:49:29;93681.98;;;0.80;88.64
43553;BME280;29153;42.696;23.218;2024-01-15T08:51:57;93681.09;;;0.89;87.55
43553;BME280;29153;42.696;23.218;2024-01-15T08:54:25;93661.84;;;1.07;86.41
43553;BME280;29153;42.696;23.218;2024-01-15T08:56:52;93658.68;;;0.90;85.63
43553;BME280;29153;42.696;23.218;2024-01-15T08:59:20;93651.42;;;1.23;83.80
43553;BME280;29153;42.696;23.218;2024-01-15T09:01:49;93657.69;;;1.58;82.55
43553;BME280;29153;42.696;23.218;2024-01-15T09:04:17;93651.84;;;1.90;79.77
43553;BME280;29153;42.696;23.218;2024-01-15T09:06:47;93635.33;;;2.27;80.12
43553;BME280;29153;42.696;23.218;2024-01-15T09:09:15;93632.32;;;2.62;78.03
43553;BME280;29153;42.696;23.218;2024-01-15T09:11:42;93596.33;;;2.45;72.82
43553;BME280;29153;42.696;23.218;2024-01-15T09:14:10;93611.13;;;2.61;75.44
43553;BME280;29153;42.696;23.218;2024-01-15T09:16:37;93592.42;;;2.72;75.28
43553;BME280;29153;42.696;23.218;2024-01-15T09:19:05;93601.07;;;2.75;72.66
43553;BME280;29153;42.696;23.218;2024-01-15T09:21:33;93583.02;;;3.03;73.89
43553;BME280;29153;42.696;23.218;2024-01-15T09:24:00;93588.72;;;3.32;72.42
43553;BME280;29153;42.696;23.218;2024-01-15T09:26:28;93575.67;;;3.37;68.39
43553;BME280;29153;42.696;23.218;2024-01-15T09:28:56;93580.20;;;3.51;67.76
43553;BME280;29153;42.696;23.218;2024-01-15T09:31:24;93585.98;;;3.53;65.90
43553;BME280;29153;42.696;23.218;2024-01-15T09:33:52;93578.41;;;3.54;66.99
43553;BME280;29153;42.696;23.218;2024-01-15T09:36:21;93576.16;;;3.31;67.55
43553;BME280;29153;42.696;23.218;2024-01-15T09:38:49;93557.70;;;3.50;68.16
43553;BME280;29153;42.696;23.218;2024-01-15T09:41:17;93554.33;;;3.55;68.49
43553;BME280;29153;42.696;23.218;2024-01-15T09:43:45;93545.61;;;3.44;66.53
43553;BME280;29153;42.696;23.218;2024-01-15T09:46:13;93543.95;;;3.28;67.51
43553;BME280;29153;42.696;23.218;2024-01-15T09:48:41;93516.44;;;3.23;66.74
43553;BME280;29153;42.696;23.218;2024-01-15T09:51:09;93514.17;;;3.37;70.81
43553;BME280;29153;42.696;23.218;2024-01-15T09:53:37;93498.80;;;3.50;70.39
43553;BME280;29153;42.696;23.218;2024-01-15T09:56:06;93519.72;;;3.48;74.18
43553;BME280;29153;42.696;23.218;2024-01-15T09:58:35;93497.22;;;3.05;71.54
43553;BME280;29153;42.696;23.218;2024-01-15T10:01:03;93518.38;;;3.01;72.39
43553;BME280;29153;42.696;23.218;2024-01-15T10:03:31;93528.09;;;3.05;73.45
43553;BME280;29153;42.696;23.218;2024-01-15T10:05:59;93516.13;;;3.17;72.55
43553;BME280;29153;42.696;23.218;2024-01-15T10:08:28;93505.30;;;3.01;70.72
43553;BME280;29153;42.696;23.218;2024-01-15T10:10:56;93494.88;;;3.03;71.49
43553;BME280;29153;42.696;23.218;2024-01-15T10:13:23;93503.23;;;3.03;72.85
43553;BME280;29153;42.696;23.218;2024-01-15T10:15:52;93500.86;;;2.99;72.77
43553;BME280;29153;42.696;23.218;2024-01-15T10:18:20;93481.16;;;2.89;72.65
43553;BME280;29153;42.696;23.218;2024-01-15T10:20:48;93480.77;;;2.38;73.69
43553;BME280;29153;42.696;23.218;2024-01-15T10:23:15;93484.52;;;2.47;75.69
43553;BME280;29153;42.696;23.218;2024-01-15T10:25:43;93469.95;;;2.56;75.91
43553;BME280;29153;42.696;23.218;2024-01-15T10:28:10;93480.42;;;2.61;75.65
43553;BME280;29153;42.696;23.218;2024-01-15T10:30:38;93475.89;;;2.49;76.17
43553;BME280;29153;42.696;23.218;2024-01-15T10:33:06;93467.25;;;2.81;76.26
43553;BME280;29153;42.696;23.218;2024-01-15T10:35:34;93443.12;;;2.71;72.34
43553;BME280;29153;42.696;23.218;2024-01-15T10:38:02;93442.52;;;2.56;73.48
43553;BME280;29153;42.696;23.218;2024-01-15T10:40:31;93473.47;;;2.74;75.42
43553;BME280;29153;42.696;23.218;2024-01-15T10:42:59;93464.50;;;2.60;72.78
43553;BME280;29153;42.696;23.218;2024-01-15T10:45:27;93467.67;;;2.67;72.75
43553;BME280;29153;42.696;23.218;2024-01-15T10:47:55;93462.44;;;2.65;71.52
43553;BME280;29153;42.696;23.218;2024-01-15T10:50:24;93441.89;;;2.84;70.30
43553;BME280;29153;42.696;23.218;2024-01-15T10:52:52;93441.45;;;2.57;70.31
43553;BME280;29153;42.696;23.218;2024-01-15T10:55:21;93421.49;;;2.81;71.03
43553;BME280;29153;42.696;23.218;2024-01-15T10:57:50;93444.47;;;2.79;71.56
43553;BME280;29153;42.696;23.218;2024-01-15T11:00:19;93443.24;;;2.89;71.63
43553;BME280;29153;42.696;23.218;2024-01-15T11:02:48;93430.47;;;2.95;70.45
43553;BME280;29153;42.696;23.218;2024-01-15T11:05:16;93417.88;;;2.87;69.87
43553;BME280;29153;42.696;23.218;2024-01-15T11:07:44;93423.77;;;3.11;70.85
43553;BME280;29153;42.696;23.218;2024-01-15T11:10:46;93414.69;;;3.29;68.17
43553;BME280;29153;42.696;23.218;2024-01-15T11:13:41;93408.69;;;3.39;71.23
43553;BME280;29153;42.696;23.218;2024-01-15T11:16:07;93398.82;;;3.61;70.17
43553;BME280;29153;42.696;23.218;2024-01-15T11:18:43;93405.72;;;4.00;68.02
43553;BME280;29153;42.696;23.218;2024-01-15T11:26:44;93415.08;;;3.63;65.87
43553;BME280;29153;42.696;23.218;2024-01-15T11:29:29;93401.28;;;3.98;65.63
43553;BME280;29153;42.696;23.218;2024-01-15T11:32:02;93392.31;;;3.81;64.55
43553;BME280;29153;42.696;23.218;2024-01-15T11:34:52;93405.41;;;3.81;65.67
43553;BME280;29153;42.696;23.218;2024-01-15T11:37:22;93399.95;;;3.95;66.73
43553;BME280;29153;42.696;23.218;2024-01-15T11:39:54;93403.62;;;4.07;67.30
43553;BME280;29153;42.696;23.218;2024-01-15T11:42:22;93397.34;;;4.16;66.81
43553;BME280;29153;42.696;23.218;2024-01-15T11:44:50;93395.75;;;3.94;67.07
43553;BME280;29153;42.696;23.218;2024-01-15T11:50:02;93382.69;;;4.02;69.38
43553;BME280;29153;42.696;23.218;2024-01-15T11:52:36;93376.39;;;4.05;71.09
43553;BME280;29153;42.696;23.218;2024-01-15T11:55:26;93363.81;;;4.10;70.04
43553;BME280;29153;42.696;23.218;2024-01-15T11:57:52;93373.23;;;4.11;69.50
43553;BME280;29153;42.696;23.218;2024-01-15T12:00:23;93358.30;;;4.24;69.55
43553;BME280;29153;42.696;23.218;2024-01-15T12:02:51;93369.57;;;4.47;67.71
43553;BME280;29153;42.696;23.218;2024-01-15T12:05:20;93369.83;;;4.56;68.55
43553;BME280;29153;42.696;23.218;2024-01-15T12:07:49;93368.52;;;4.33;66.64
43553;BME280;29153;42.696;23.218;2024-01-15T12:10:19;93373.26;;;4.31;67.29
43553;BME280;29153;42.696;23.218;2024-01-15T12:12:59;93355.41;;;4.38;68.07
43553;BME280;29153;42.696;23.218;2024-01-15T12:15:29;93355.94;;;3.95;67.38
43553;BME280;29153;42.696;23.218;2024-01-15T12:17:58;93358.56;;;4.00;68.28
43553;BME280;29153;42.696;23.218;2024-01-15T12:20:26;93356.20;;;4.03;69.65
43553;BME280;29153;42.696;23.218;2024-01-15T12:22:55;93340.23;;;4.05;69.67
43553;BME280;29153;42.696;23.218;2024-01-15T12:25:24;93338.91;;;4.00;69.05
43553;BME280;29153;42.696;23.218;2024-01-15T12:27:54;93337.61;;;4.05;71.21
43553;BME280;29153;42.696;23.218;2024-01-15T12:30:22;93337.08;;;4.08;69.24
43553;BME280;29153;42.696;23.218;2024-01-15T12:32:50;93341.55;;;4.10;69.62
43553;BME280;29153;42.696;23.218;2024-01-15T12:35:18;93320.05;;;3.95;68.91
43553;BME280;29153;42.696;23.218;2024-01-15T12:37:46;93311.41;;;4.05;70.83
43553;BME280;29153;42.696;23.218;2024-01-15T12:40:18;93319.53;;;4.13;70.14
43553;BME280;29153;42.696;23.218;2024-01-15T12:42:45;93307.99;;;4.12;71.26
43553;BME280;29153;42.696;23.218;2024-01-15T12:45:14;93312.44;;;3.94;69.82
43553;BME280;29153;42.696;23.218;2024-01-15T12:47:42;93306.97;;;3.98;70.26
43553;BME280;29153;42.696;23.218;2024-01-15T12:50:11;93321.89;;;3.92;71.14
43553;BME280;29153;42.696;23.218;2024-01-15T12:52:42;93309.83;;;4.04;71.07
43553;BME280;29153;42.696;23.218;2024-01-15T12:55:10;93319.01;;;3.89;72.15
43553;BME280;29153;42.696;23.218;2024-01-15T12:57:38;93304.86;;;3.80;73.36
43553;BME280;29153;42.696;23.218;2024-01-15T13:00:06;93306.17;;;3.85;72.40
43553;BME280;29153;42.696;23.218;2024-01-15T13:02:36;93307.48;;;3.87;72.79